Time;durP1;ratioP1;P1;durP2;ratioP2;P2;SDS_P1;SDS_P2;PMS_P1;PMS_P2;Temp;Humidity;BMP_temperature;BMP_pressure;BME280_temperature;BME280_humidity;BME280_pressure;Samples;Min_cycle;Max_cycle;Signal;HPM_P1;HPM_P2
2023/12/20 00:00:19;;;;;;;5.00;3.20;;;;;;;;;;107128;1251;59731;-80
2023/12/20 00:03:06;;;;;;;5.20;2.80;;;;;;;;;;106953;1253;62003;-80
2023/12/20 00:05:33;;;;;;;4.20;2.50;;;;;;;;;;106899;1253;59815;-80
2023/12/20 00:07:59;;;;;;;4.90;2.40;;;;;;;;;;106851;1253;60208;-80
2023/12/20 00:10:26;;;;;;;8.00;3.40;;;;;;;;;;106863;1253;60812;-80
2023/12/20 00:12:52;;;;;;;4.40;2.20;;;;;;;;;;109405;1253;58876;-80
2023/12/20 00:15:19;;;;;;;4.70;2.60;;;;;;;;;;109530;1253;59003;-80
2023/12/20 00:17:45;;;;;;;6.40;2.50;;;;;;;;;;109482;1253;58961;-80
2023/12/20 00:20:12;;;;;;;5.40;2.60;;;;;;;;;;108358;1253;59851;-80
2023/12/20 00:22:38;;;;;;;7.20;3.10;;;;;;;;;;106995;1253;59780;-80
2023/12/20 00:25:05;;;;;;;6.30;2.90;;;;;;;;;;106975;1251;61546;-80
2023/12/20 00:27:31;;;;;;;3.60;2.40;;;;;;;;;;107014;1255;60812;-80
2023/12/20 00:29:58;;;;;;;5.20;2.90;;;;;;;;;;106992;1251;61313;-80
2023/12/20 00:32:24;;;;;;;8.80;3.40;;;;;;;;;;107131;1253;60814;-81
2023/12/20 00:34:51;;;;;;;9.80;2.90;;;;;;;;;;107074;1255;59218;-80
2023/12/20 00:37:17;;;;;;;5.70;3.30;;;;;;;;;;107110;1253;59852;-80
2023/12/20 00:39:44;;;;;;;5.30;2.50;;;;;;;;;;107142;1251;60722;-81
2023/12/20 00:42:10;;;;;;;5.00;3.00;;;;;;;;;;108854;1251;59736;-80
2023/12/20 00:44:37;;;;;;;4.60;3.20;;;;;;;;;;109568;1251;58923;-80
2023/12/20 00:47:04;;;;;;;6.80;3.50;;;;;;;;;;109620;1251;59094;-80
2023/12/20 00:49:30;;;;;;;5.20;3.30;;;;;;;;;;109558;1251;61683;-80
2023/12/20 00:51:57;;;;;;;4.80;2.80;;;;;;;;;;109587;1251;58807;-81
2023/12/20 00:54:23;;;;;;;5.80;3.20;;;;;;;;;;109542;1253;59059;-80
2023/12/20 00:56:49;;;;;;;5.90;3.20;;;;;;;;;;109489;1252;59285;-80
2023/12/20 00:59:16;;;;;;;4.90;3.40;;;;;;;;;;109525;1253;59005;-81
2023/12/20 01:01:42;;;;;;;5.00;2.90;;;;;;;;;;107132;1253;60786;-81
2023/12/20 01:04:09;;;;;;;5.60;3.30;;;;;;;;;;106948;1253;59918;-81
2023/12/20 01:06:36;;;;;;;8.60;3.20;;;;;;;;;;106941;1253;59811;-80
2023/12/20 01:09:02;;;;;;;4.70;3.10;;;;;;;;;;107021;1255;60591;-80
2023/12/20 01:11:29;;;;;;;5.10;3.20;;;;;;;;;;108028;1253;60820;-80
2023/12/20 01:13:55;;;;;;;6.10;3.50;;;;;;;;;;109519;1253;59208;-80
2023/12/20 01:16:22;;;;;;;5.40;2.40;;;;;;;;;;109496;1253;59020;-80
2023/12/20 01:18:49;;;;;;;5.70;3.40;;;;;;;;;;109451;1253;59183;-80
2023/12/20 01:21:15;;;;;;;5.70;3.20;;;;;;;;;;109458;1253;59208;-80
2023/12/20 01:23:42;;;;;;;5.80;3.00;;;;;;;;;;108786;1254;59879;-80
2023/12/20 01:26:08;;;;;;;4.50;2.90;;;;;;;;;;107049;1251;59680;-80
2023/12/20 01:28:35;;;;;;;5.10;3.00;;;;;;;;;;108417;1251;60862;-81
2023/12/20 01:31:02;;;;;;;7.00;3.60;;;;;;;;;;108597;1254;59893;-81
2023/12/20 01:33:28;;;;;;;5.60;3.50;;;;;;;;;;106973;1257;59819;-80
2023/12/20 01:35:55;;;;;;;4.50;2.50;;;;;;;;;;107018;1253;59746;-80
2023/12/20 01:38:21;;;;;;;4.40;3.00;;;;;;;;;;106955;1254;60946;-80
2023/12/20 01:40:48;;;;;;;5.00;3.00;;;;;;;;;;106979;1253;59801;-80
2023/12/20 01:43:14;;;;;;;4.80;2.70;;;;;;;;;;106994;1253;60948;-80
2023/12/20 01:45:41;;;;;;;5.60;2.70;;;;;;;;;;106994;1252;60851;-80
2023/12/20 01:48:08;;;;;;;5.30;2.90;;;;;;;;;;106981;1251;59799;-80
2023/12/20 01:50:35;;;;;;;5.10;3.50;;;;;;;;;;107515;1251;61627;-80
2023/12/20 01:53:02;;;;;;;4.40;2.30;;;;;;;;;;107518;1251;59802;-79
2023/12/20 01:55:30;;;;;;;9.20;3.70;;;;;;;;;;106945;1256;60851;-80
2023/12/20 01:57:56;;;;;;;4.50;3.30;;;;;;;;;;106816;1256;60745;-80
2023/12/20 02:00:23;;;;;;;5.90;3.70;;;;;;;;;;106903;1253;60810;-79
2023/12/20 02:02:50;;;;;;;5.50;3.40;;;;;;;;;;106882;1257;62677;-81
2023/12/20 02:05:17;;;;;;;4.70;2.90;;;;;;;;;;106997;1255;59451;-81
2023/12/20 02:07:43;;;;;;;4.60;2.30;;;;;;;;;;106843;1251;60963;-79
2023/12/20 02:10:10;;;;;;;6.60;3.30;;;;;;;;;;106927;1255;60829;-81
2023/12/20 02:12:36;;;;;;;6.60;3.00;;;;;;;;;;107015;1253;60972;-80
2023/12/20 02:15:03;;;;;;;4.60;3.10;;;;;;;;;;106982;1253;59936;-80
2023/12/20 02:17:29;;;;;;;9.00;2.90;;;;;;;;;;106846;1256;60724;-80
2023/12/20 02:19:56;;;;;;;9.10;4.60;;;;;;;;;;106884;1256;60944;-79
2023/12/20 02:22:23;;;;;;;5.30;3.10;;;;;;;;;;107036;1256;60145;-81
2023/12/20 02:24:49;;;;;;;4.40;3.70;;;;;;;;;;107161;1252;59686;-81
2023/12/20 02:27:15;;;;;;;7.80;3.80;;;;;;;;;;107090;1254;59701;-80
2023/12/20 02:29:42;;;;;;;5.60;3.30;;;;;;;;;;107036;1256;60855;-81
2023/12/20 02:32:08;;;;;;;8.50;3.60;;;;;;;;;;107067;1254;61996;-81
2023/12/20 02:34:35;;;;;;;8.40;4.10;;;;;;;;;;107013;1251;59835;-81
2023/12/20 02:37:01;;;;;;;3.80;2.80;;;;;;;;;;107035;1251;59815;-80
2023/12/20 02:39:28;;;;;;;8.30;4.30;;;;;;;;;;107058;1256;62213;-79
2023/12/20 02:41:54;;;;;;;7.70;4.20;;;;;;;;;;107024;1256;59812;-80
2023/12/20 02:44:21;;;;;;;6.10;3.80;;;;;;;;;;106989;1256;59299;-80
2023/12/20 02:46:47;;;;;;;6.90;3.20;;;;;;;;;;106971;1254;59816;-80
2023/12/20 02:49:14;;;;;;;4.80;2.60;;;;;;;;;;107007;1251;60903;-80
2023/12/20 02:51:40;;;;;;;3.80;2.60;;;;;;;;;;107085;1254;60777;-79
2023/12/20 02:54:07;;;;;;;4.70;2.90;;;;;;;;;;107037;1254;59803;-80
2023/12/20 02:56:33;;;;;;;5.20;2.30;;;;;;;;;;106812;1253;59271;-79
2023/12/20 02:59:00;;;;;;;63.00;23.00;;;;;;;;;;106933;1254;60821;-80
2023/12/20 03:01:26;;;;;;;19.50;10.20;;;;;;;;;;106929;1255;59822;-80
2023/12/20 03:03:53;;;;;;;9.80;5.10;;;;;;;;;;106892;1255;62118;-80
2023/12/20 03:06:19;;;;;;;10.40;6.30;;;;;;;;;;106935;1255;59418;-80
2023/12/20 03:08:46;;;;;;;16.40;9.10;;;;;;;;;;106942;1254;60406;-80
2023/12/20 03:11:12;;;;;;;17.20;8.90;;;;;;;;;;106857;1256;62105;-80
2023/12/20 03:13:39;;;;;;;8.30;4.90;;;;;;;;;;106996;1256;60695;-80
2023/12/20 03:16:09;;;;;;;12.70;7.10;;;;;;;;;;107210;1251;60938;-80
2023/12/20 03:18:35;;;;;;;8.20;4.60;;;;;;;;;;107206;1254;59830;-80
2023/12/20 03:21:02;;;;;;;16.80;7.10;;;;;;;;;;106936;1255;59566;-80
2023/12/20 03:23:30;;;;;;;10.00;5.20;;;;;;;;;;107015;1254;62025;-80
2023/12/20 03:25:56;;;;;;;9.30;3.60;;;;;;;;;;107086;1251;60226;-80
2023/12/20 03:28:23;;;;;;;9.70;6.40;;;;;;;;;;107162;1251;59759;-80
2023/12/20 03:30:50;;;;;;;8.00;3.50;;;;;;;;;;107049;1251;59809;-81
2023/12/20 03:33:16;;;;;;;5.90;2.90;;;;;;;;;;107062;1251;59919;-80
2023/12/20 03:35:43;;;;;;;6.60;4.00;;;;;;;;;;106995;1251;60664;-80
2023/12/20 03:38:09;;;;;;;20.40;9.40;;;;;;;;;;107038;1251;60814;-80
2023/12/20 03:40:36;;;;;;;13.70;8.80;;;;;;;;;;107002;1251;59900;-80
2023/12/20 03:43:02;;;;;;;6.00;3.10;;;;;;;;;;107019;1251;59806;-80
2023/12/20 03:45:29;;;;;;;5.70;2.80;;;;;;;;;;106951;1251;59932;-81
2023/12/20 03:47:56;;;;;;;4.70;3.20;;;;;;;;;;107048;1251;60658;-80
2023/12/20 03:50:22;;;;;;;4.40;2.30;;;;;;;;;;107024;1251;60781;-80
2023/12/20 03:52:49;;;;;;;5.10;3.30;;;;;;;;;;107010;1251;62015;-80
2023/12/20 03:55:16;;;;;;;7.80;5.00;;;;;;;;;;106974;1254;60794;-81
2023/12/20 03:57:42;;;;;;;7.60;3.80;;;;;;;;;;106953;1251;60967;-80
2023/12/20 04:00:10;;;;;;;13.60;7.80;;;;;;;;;;106855;1254;59841;-80
2023/12/20 04:02:37;;;;;;;21.00;11.90;;;;;;;;;;106932;1254;60730;-80
2023/12/20 04:05:04;;;;;;;13.60;7.50;;;;;;;;;;106885;1253;62572;-80
2023/12/20 04:07:31;;;;;;;6.90;3.60;;;;;;;;;;106836;1253;59389;-80
2023/12/20 04:09:57;;;;;;;22.50;11.00;;;;;;;;;;106824;1254;59887;-80
2023/12/20 04:12:24;;;;;;;14.10;7.20;;;;;;;;;;106975;1254;61949;-80
2023/12/20 04:14:51;;;;;;;32.90;13.60;;;;;;;;;;109495;1253;59185;-80
2023/12/20 04:17:17;;;;;;;10.40;5.80;;;;;;;;;;109495;1253;59613;-80
2023/12/20 04:19:44;;;;;;;15.80;8.40;;;;;;;;;;107246;1254;59731;-80
2023/12/20 04:22:10;;;;;;;11.30;6.70;;;;;;;;;;107010;1251;59837;-79
2023/12/20 04:24:37;;;;;;;10.10;5.30;;;;;;;;;;107010;1251;59935;-80
2023/12/20 04:27:03;;;;;;;5.80;3.80;;;;;;;;;;106940;1252;59747;-80
2023/12/20 04:29:30;;;;;;;33.30;18.80;;;;;;;;;;106881;1254;61974;-80
2023/12/20 04:31:56;;;;;;;19.20;10.90;;;;;;;;;;106935;1254;59796;-80
2023/12/20 04:34:23;;;;;;;49.60;25.40;;;;;;;;;;107010;1254;60872;-81
2023/12/20 04:36:49;;;;;;;12.70;8.20;;;;;;;;;;107045;1253;60876;-80
2023/12/20 04:39:16;;;;;;;33.60;18.30;;;;;;;;;;107004;1253;59792;-80
2023/12/20 04:41:42;;;;;;;7.40;4.10;;;;;;;;;;106941;1254;59244;-80
2023/12/20 04:44:09;;;;;;;9.50;5.40;;;;;;;;;;106961;1256;59888;-79
2023/12/20 04:46:35;;;;;;;26.70;12.10;;;;;;;;;;106972;1253;59743;-79
2023/12/20 04:49:02;;;;;;;16.50;6.30;;;;;;;;;;106933;1254;59823;-80
2023/12/20 04:51:28;;;;;;;76.60;30.00;;;;;;;;;;106789;1254;59759;-80
2023/12/20 04:53:55;;;;;;;7.90;4.90;;;;;;;;;;106953;1252;60419;-80
2023/12/20 04:56:21;;;;;;;20.80;11.00;;;;;;;;;;106956;1251;59808;-80
2023/12/20 04:58:48;;;;;;;22.90;12.70;;;;;;;;;;106965;1251;60030;-80
2023/12/20 05:01:14;;;;;;;11.00;6.00;;;;;;;;;;106953;1251;60962;-80
2023/12/20 05:03:41;;;;;;;6.60;4.20;;;;;;;;;;106968;1251;62151;-80
2023/12/20 05:06:07;;;;;;;80.30;37.30;;;;;;;;;;106952;1251;59863;-80
2023/12/20 05:08:34;;;;;;;77.60;35.70;;;;;;;;;;106954;1251;60720;-81
2023/12/20 05:11:00;;;;;;;31.80;14.40;;;;;;;;;;107457;1250;60872;-81
2023/12/20 05:13:27;;;;;;;13.80;6.70;;;;;;;;;;107045;1251;61574;-80
2023/12/20 05:15:53;;;;;;;11.30;6.00;;;;;;;;;;107323;1251;59902;-81
2023/12/20 05:18:20;;;;;;;25.00;14.40;;;;;;;;;;107481;1251;60124;-80
2023/12/20 05:20:47;;;;;;;15.50;9.90;;;;;;;;;;107063;1251;60782;-79
2023/12/20 05:23:13;;;;;;;7.70;5.10;;;;;;;;;;107072;1251;59957;-80
2023/12/20 05:25:40;;;;;;;11.60;7.60;;;;;;;;;;108628;1251;60749;-80
2023/12/20 05:28:07;;;;;;;12.70;6.30;;;;;;;;;;107029;1251;61318;-80
2023/12/20 05:30:34;;;;;;;10.40;6.10;;;;;;;;;;107078;1251;62772;-80
2023/12/20 05:33:00;;;;;;;11.90;7.20;;;;;;;;;;107521;1251;59666;-81
2023/12/20 05:35:27;;;;;;;12.50;7.40;;;;;;;;;;106994;1251;61987;-80
2023/12/20 05:37:53;;;;;;;7.90;4.10;;;;;;;;;;107056;1251;59832;-80
2023/12/20 05:40:20;;;;;;;7.10;4.40;;;;;;;;;;107104;1251;59838;-80
2023/12/20 05:42:46;;;;;;;12.50;7.10;;;;;;;;;;107019;1251;60897;-80
2023/12/20 05:45:14;;;;;;;14.90;7.40;;;;;;;;;;106996;1251;60839;-81
2023/12/20 05:47:40;;;;;;;16.30;9.10;;;;;;;;;;107020;1251;59739;-80
2023/12/20 05:50:07;;;;;;;5.70;4.20;;;;;;;;;;107001;1251;59726;-80
2023/12/20 05:52:34;;;;;;;14.60;5.50;;;;;;;;;;107046;1251;60353;-80
2023/12/20 05:55:03;;;;;;;6.30;3.10;;;;;;;;;;107156;1252;61744;-80
2023/12/20 05:57:30;;;;;;;5.90;3.10;;;;;;;;;;106972;1251;59592;-80
2023/12/20 05:59:56;;;;;;;6.90;5.00;;;;;;;;;;109144;1251;59763;-80
2023/12/20 06:02:23;;;;;;;7.70;4.50;;;;;;;;;;109471;1253;59127;-80
2023/12/20 06:04:49;;;;;;;5.40;3.50;;;;;;;;;;107195;1254;59770;-80
2023/12/20 06:07:16;;;;;;;4.90;3.80;;;;;;;;;;106972;1253;59730;-80
2023/12/20 06:09:43;;;;;;;4.50;3.10;;;;;;;;;;106847;1253;60717;-80
2023/12/20 06:12:10;;;;;;;5.50;4.70;;;;;;;;;;107467;1253;61264;-80
2023/12/20 06:14:36;;;;;;;6.20;3.10;;;;;;;;;;107791;1251;61552;-80
2023/12/20 06:17:03;;;;;;;5.10;3.40;;;;;;;;;;107608;1251;59909;-80
2023/12/20 06:19:29;;;;;;;5.90;3.30;;;;;;;;;;107484;1251;61569;-80
2023/12/20 06:21:56;;;;;;;5.30;3.00;;;;;;;;;;107024;1251;60654;-80
2023/12/20 06:24:22;;;;;;;6.40;3.90;;;;;;;;;;107052;1251;60841;-79
2023/12/20 06:26:49;;;;;;;7.60;4.50;;;;;;;;;;106964;1250;59189;-80
2023/12/20 06:29:16;;;;;;;6.10;4.00;;;;;;;;;;107054;1254;60880;-80
2023/12/20 06:31:43;;;;;;;5.70;3.50;;;;;;;;;;107136;1251;61788;-81
2023/12/20 06:34:10;;;;;;;5.70;4.20;;;;;;;;;;106909;1251;179412;-80
2023/12/20 06:36:36;;;;;;;7.00;3.90;;;;;;;;;;107101;1251;62069;-80
2023/12/20 06:39:04;;;;;;;9.10;5.50;;;;;;;;;;109349;1250;59281;-79
2023/12/20 06:41:31;;;;;;;9.60;5.90;;;;;;;;;;109518;1250;59198;-80
2023/12/20 06:43:57;;;;;;;9.20;6.60;;;;;;;;;;109581;1250;61649;-81
2023/12/20 06:46:24;;;;;;;9.50;6.80;;;;;;;;;;109575;1253;59078;-80
2023/12/20 06:48:50;;;;;;;10.70;6.80;;;;;;;;;;109159;1250;59907;-81
2023/12/20 06:51:19;;;;;;;12.10;6.70;;;;;;;;;;109105;1251;60124;-80
2023/12/20 06:53:45;;;;;;;11.70;6.30;;;;;;;;;;109578;1254;59160;-81
2023/12/20 06:56:12;;;;;;;10.50;6.40;;;;;;;;;;109491;1251;61879;-81
2023/12/20 06:58:39;;;;;;;15.80;9.00;;;;;;;;;;109552;1250;59096;-80
2023/12/20 07:01:05;;;;;;;14.80;8.50;;;;;;;;;;109527;1251;60392;-80
2023/12/20 07:03:32;;;;;;;13.10;9.30;;;;;;;;;;109528;1251;59041;-80
2023/12/20 07:05:58;;;;;;;19.70;9.70;;;;;;;;;;109572;1251;59133;-80
2023/12/20 07:08:25;;;;;;;17.60;9.40;;;;;;;;;;109512;1251;62022;-79
2023/12/20 07:10:51;;;;;;;17.80;9.30;;;;;;;;;;109479;1251;59238;-80
2023/12/20 07:13:18;;;;;;;18.60;9.90;;;;;;;;;;109426;1251;59046;-80
2023/12/20 07:15:44;;;;;;;17.90;10.80;;;;;;;;;;109539;1251;59839;-80
2023/12/20 07:18:11;;;;;;;17.10;9.80;;;;;;;;;;108488;1251;58952;-81
2023/12/20 07:20:37;;;;;;;19.10;11.60;;;;;;;;;;107432;1251;59507;-80
2023/12/20 07:23:04;;;;;;;17.10;10.20;;;;;;;;;;107628;1251;59833;-80
2023/12/20 07:25:32;;;;;;;15.30;9.40;;;;;;;;;;107550;1251;59213;-81
2023/12/20 07:27:58;;;;;;;15.20;8.10;;;;;;;;;;108537;1251;59823;-80
2023/12/20 07:30:25;;;;;;;14.20;9.40;;;;;;;;;;109522;1251;59064;-80
2023/12/20 07:32:52;;;;;;;19.40;8.60;;;;;;;;;;109453;1251;62986;-80
2023/12/20 07:35:19;;;;;;;13.00;8.50;;;;;;;;;;109495;1251;58913;-80
2023/12/20 07:37:45;;;;;;;16.60;10.80;;;;;;;;;;109503;1251;59633;-80
2023/12/20 07:40:12;;;;;;;19.30;11.70;;;;;;;;;;109455;1251;59049;-80
2023/12/20 07:42:39;;;;;;;19.10;10.80;;;;;;;;;;109456;1252;59117;-80
2023/12/20 07:45:05;;;;;;;18.60;10.00;;;;;;;;;;109478;1251;60787;-80
2023/12/20 07:47:32;;;;;;;16.20;10.00;;;;;;;;;;109510;1250;58993;-79
2023/12/20 07:49:58;;;;;;;18.50;9.80;;;;;;;;;;109472;1251;59427;-79
2023/12/20 07:52:25;;;;;;;21.50;12.30;;;;;;;;;;109435;1251;59124;-80
2023/12/20 07:54:52;;;;;;;24.70;13.60;;;;;;;;;;109482;1251;59219;-80
2023/12/20 07:57:18;;;;;;;24.30;15.30;;;;;;;;;;109480;1251;59219;-80
2023/12/20 07:59:45;;;;;;;27.40;15.10;;;;;;;;;;109463;1251;59184;-79
2023/12/20 08:02:11;;;;;;;18.10;12.40;;;;;;;;;;109411;1251;59694;-80
2023/12/20 08:04:38;;;;;;;21.70;12.60;;;;;;;;;;109458;1251;58903;-80
2023/12/20 08:07:05;;;;;;;24.60;13.50;;;;;;;;;;109500;1251;59117;-80
2023/12/20 08:09:32;;;;;;;36.70;20.70;;;;;;;;;;109495;1250;58901;-79
2023/12/20 08:11:59;;;;;;;38.00;19.50;;;;;;;;;;109437;1251;59128;-80
2023/12/20 08:14:26;;;;;;;23.50;12.10;;;;;;;;;;109448;1251;59599;-81
2023/12/20 08:16:52;;;;;;;20.30;11.90;;;;;;;;;;109435;1250;59195;-80
2023/12/20 08:19:19;;;;;;;23.30;12.70;;;;;;;;;;109494;1251;59009;-80
2023/12/20 08:21:45;;;;;;;24.70;13.90;;;;;;;;;;109387;1251;58928;-80
2023/12/20 08:24:12;;;;;;;18.30;11.60;;;;;;;;;;109472;1251;59180;-80
2023/12/20 08:26:38;;;;;;;16.70;9.50;;;;;;;;;;109461;1251;59097;-80
2023/12/20 08:29:05;;;;;;;15.70;9.80;;;;;;;;;;109461;1251;58950;-80
2023/12/20 08:31:32;;;;;;;16.20;9.70;;;;;;;;;;109453;1251;59233;-80
2023/12/20 08:33:59;;;;;;;14.20;9.20;;;;;;;;;;109401;1251;61708;-80
2023/12/20 08:36:25;;;;;;;13.80;10.20;;;;;;;;;;109453;1250;59012;-80
2023/12/20 08:38:52;;;;;;;14.00;9.20;;;;;;;;;;109432;1251;59600;-80
2023/12/20 08:41:19;;;;;;;14.10;9.30;;;;;;;;;;109439;1251;59445;-80
2023/12/20 08:43:46;;;;;;;14.60;8.70;;;;;;;;;;109518;1251;59080;-80
2023/12/20 08:46:13;;;;;;;17.20;9.90;;;;;;;;;;109491;1250;59299;-80
2023/12/20 08:48:40;;;;;;;13.00;8.00;;;;;;;;;;109493;1251;59337;-79
2023/12/20 08:51:08;;;;;;;15.60;9.30;;;;;;;;;;109423;1251;60557;-79
2023/12/20 08:53:35;;;;;;;18.20;10.10;;;;;;;;;;109460;1251;59225;-80
2023/12/20 08:56:01;;;;;;;19.10;9.70;;;;;;;;;;109466;1251;58954;-80
2023/12/20 08:58:28;;;;;;;14.30;8.90;;;;;;;;;;107800;1251;60530;-80
2023/12/20 09:00:54;;;;;;;11.80;7.90;;;;;;;;;;107257;1251;60887;-80
2023/12/20 09:03:21;;;;;;;15.50;9.00;;;;;;;;;;107290;1251;60917;-80
2023/12/20 09:05:47;;;;;;;18.10;10.90;;;;;;;;;;107215;1251;60905;-80
2023/12/20 09:08:14;;;;;;;34.10;17.40;;;;;;;;;;107171;1251;59741;-80
2023/12/20 09:10:40;;;;;;;34.60;16.00;;;;;;;;;;107272;1251;59933;-80
2023/12/20 09:13:07;;;;;;;33.00;13.60;;;;;;;;;;107465;1253;59548;-79
2023/12/20 09:15:34;;;;;;;21.10;11.60;;;;;;;;;;107329;1251;60897;-80
2023/12/20 09:18:01;;;;;;;20.10;11.60;;;;;;;;;;107348;1251;59241;-80
2023/12/20 09:20:27;;;;;;;19.00;10.30;;;;;;;;;;109411;1251;58810;-79
2023/12/20 09:22:54;;;;;;;16.10;9.90;;;;;;;;;;108395;1250;62401;-79
2023/12/20 09:25:22;;;;;;;19.70;10.00;;;;;;;;;;108348;1251;58833;-79
2023/12/20 09:27:48;;;;;;;15.70;9.60;;;;;;;;;;107685;1251;60875;-80
2023/12/20 09:30:15;;;;;;;20.40;11.60;;;;;;;;;;109436;1251;59240;-80
2023/12/20 09:32:41;;;;;;;16.50;9.80;;;;;;;;;;109475;1251;58892;-80
2023/12/20 09:35:08;;;;;;;20.70;11.50;;;;;;;;;;109310;1251;62807;-81
2023/12/20 09:37:35;;;;;;;44.00;18.20;;;;;;;;;;107271;1251;60671;-80
2023/12/20 09:40:02;;;;;;;17.00;10.30;;;;;;;;;;107268;1251;62047;-81
2023/12/20 09:42:39;;;;;;;35.90;17.70;;;;;;;;;;107619;1251;61103;-80
2023/12/20 09:45:08;;;;;;;18.30;10.00;;;;;;;;;;107322;1251;59747;-80
2023/12/20 09:47:35;;;;;;;12.80;8.00;;;;;;;;;;107457;1251;61563;-80
2023/12/20 09:50:02;;;;;;;14.20;8.40;;;;;;;;;;107478;1251;59786;-80
2023/12/20 09:52:28;;;;;;;18.10;11.10;;;;;;;;;;107529;1250;62041;-80
2023/12/20 09:54:55;;;;;;;72.90;39.60;;;;;;;;;;107303;1251;60850;-80
2023/12/20 09:57:22;;;;;;;18.90;12.10;;;;;;;;;;107300;1251;62002;-80
2023/12/20 09:59:48;;;;;;;14.30;8.90;;;;;;;;;;107307;1251;61793;-80
2023/12/20 10:02:15;;;;;;;11.90;7.80;;;;;;;;;;107084;1251;59291;-80
2023/12/20 10:04:48;;;;;;;15.20;9.60;;;;;;;;;;107319;1251;59856;-80
2023/12/20 10:07:15;;;;;;;14.90;9.60;;;;;;;;;;107305;1251;61139;-80
2023/12/20 10:09:41;;;;;;;20.30;10.20;;;;;;;;;;107532;1250;61098;-80
2023/12/20 10:12:08;;;;;;;32.00;14.60;;;;;;;;;;107473;1251;61584;-80
2023/12/20 10:14:34;;;;;;;36.40;16.10;;;;;;;;;;107443;1251;59770;-79
2023/12/20 10:17:04;;;;;;;22.20;12.10;;;;;;;;;;107417;1251;60893;-80
2023/12/20 10:19:31;;;;;;;20.50;11.20;;;;;;;;;;107351;1251;59731;-80
2023/12/20 10:22:00;;;;;;;16.70;10.00;;;;;;;;;;107564;1250;59786;-80
2023/12/20 10:24:30;;;;;;;16.90;9.80;;;;;;;;;;107380;1251;61990;-80
2023/12/20 10:27:06;;;;;;;14.40;9.10;;;;;;;;;;107390;1251;60848;-81
2023/12/20 10:29:34;;;;;;;14.80;8.80;;;;;;;;;;107373;1251;60959;-80
2023/12/20 10:32:14;;;;;;;33.90;18.40;;;;;;;;;;107500;1251;61887;-80
2023/12/20 10:34:40;;;;;;;16.90;9.70;;;;;;;;;;107341;1251;59113;-79
2023/12/20 10:37:07;;;;;;;20.30;12.00;;;;;;;;;;107219;1251;60310;-80
2023/12/20 10:39:33;;;;;;;14.00;9.30;;;;;;;;;;107134;1251;59825;-79
2023/12/20 10:42:00;;;;;;;18.00;9.80;;;;;;;;;;107254;1251;60581;-81
2023/12/20 10:44:26;;;;;;;16.00;9.60;;;;;;;;;;107136;1255;60941;-81
2023/12/20 10:46:57;;;;;;;15.00;9.70;;;;;;;;;;107175;1251;60161;-80
2023/12/20 10:49:24;;;;;;;10.30;6.30;;;;;;;;;;106940;1253;61599;-80
2023/12/20 10:51:51;;;;;;;21.70;11.50;;;;;;;;;;107222;1251;59262;-79
2023/12/20 10:54:18;;;;;;;19.00;11.20;;;;;;;;;;107589;1251;60007;-80
2023/12/20 10:56:45;;;;;;;26.60;13.00;;;;;;;;;;107031;1251;59728;-79
2023/12/20 10:59:11;;;;;;;22.40;12.10;;;;;;;;;;106882;1251;60591;-80
2023/12/20 11:01:38;;;;;;;13.60;8.00;;;;;;;;;;107248;1251;59822;-80
2023/12/20 11:04:05;;;;;;;19.80;11.20;;;;;;;;;;107143;1254;59756;-81
2023/12/20 11:06:32;;;;;;;14.10;8.80;;;;;;;;;;106956;1250;60817;-79
2023/12/20 11:09:09;;;;;;;17.60;10.60;;;;;;;;;;106985;1251;60924;-79
2023/12/20 11:11:46;;;;;;;14.60;8.70;;;;;;;;;;107238;1251;59744;-79
2023/12/20 11:14:15;;;;;;;15.90;9.10;;;;;;;;;;107142;1253;61752;-80
2023/12/20 11:16:42;;;;;;;17.40;8.00;;;;;;;;;;106931;1251;60301;-81
2023/12/20 11:19:08;;;;;;;13.40;7.80;;;;;;;;;;106991;1251;60554;-80
2023/12/20 11:21:35;;;;;;;17.60;9.80;;;;;;;;;;107242;1251;59890;-79
2023/12/20 11:24:01;;;;;;;16.30;9.70;;;;;;;;;;107313;1253;59898;-80
2023/12/20 11:26:31;;;;;;;12.50;7.90;;;;;;;;;;107027;1251;59719;-80
2023/12/20 11:29:23;;;;;;;17.70;10.30;;;;;;;;;;107092;1251;61053;-79
2023/12/20 11:31:50;;;;;;;13.30;8.30;;;;;;;;;;107140;1251;60412;-80
2023/12/20 11:34:16;;;;;;;17.60;9.30;;;;;;;;;;107369;1251;59771;-80
2023/12/20 11:36:43;;;;;;;18.60;11.60;;;;;;;;;;107255;1253;62006;-80
2023/12/20 11:39:10;;;;;;;13.20;9.80;;;;;;;;;;107365;1251;62002;-79
2023/12/20 11:41:36;;;;;;;21.30;12.20;;;;;;;;;;107352;1251;59700;-80
2023/12/20 11:44:04;;;;;;;34.10;21.30;;;;;;;;;;107339;1251;60145;-79
2023/12/20 11:46:31;;;;;;;20.00;11.90;;;;;;;;;;107288;1251;61028;-80
2023/12/20 11:48:57;;;;;;;70.60;32.70;;;;;;;;;;107020;1251;59774;-79
2023/12/20 11:51:23;;;;;;;71.30;28.70;;;;;;;;;;107138;1251;59892;-80
2023/12/20 11:53:53;;;;;;;89.90;35.50;;;;;;;;;;107074;1253;59777;-80
2023/12/20 11:56:20;;;;;;;94.40;38.60;;;;;;;;;;107112;1251;61904;-80
2023/12/20 11:58:48;;;;;;;74.60;31.40;;;;;;;;;;107063;1251;60830;-79
2023/12/20 12:01:15;;;;;;;64.70;29.50;;;;;;;;;;107122;1251;61174;-80
2023/12/20 12:03:42;;;;;;;24.00;14.50;;;;;;;;;;107037;1251;59761;-81
2023/12/20 12:06:09;;;;;;;60.40;24.90;;;;;;;;;;107270;1253;60971;-80
2023/12/20 12:08:35;;;;;;;23.60;11.80;;;;;;;;;;106882;1250;59758;-80
2023/12/20 12:11:02;;;;;;;13.00;8.10;;;;;;;;;;107114;1251;60024;-80
2023/12/20 12:13:29;;;;;;;13.30;7.70;;;;;;;;;;107091;1251;59820;-80
2023/12/20 12:15:55;;;;;;;13.40;10.20;;;;;;;;;;106945;1251;61524;-80
2023/12/20 12:18:22;;;;;;;10.10;7.20;;;;;;;;;;106955;1251;59777;-80
2023/12/20 12:20:48;;;;;;;8.40;5.40;;;;;;;;;;107085;1251;59822;-79
2023/12/20 12:23:15;;;;;;;8.80;5.70;;;;;;;;;;107211;1250;59858;-80
2023/12/20 12:25:41;;;;;;;8.30;5.50;;;;;;;;;;107284;1251;59846;-79
2023/12/20 12:28:08;;;;;;;8.90;5.50;;;;;;;;;;107354;1251;59509;-80
2023/12/20 12:30:34;;;;;;;8.40;4.60;;;;;;;;;;107260;1251;60949;-80
2023/12/20 12:33:01;;;;;;;9.20;5.60;;;;;;;;;;107070;1251;61043;-79
2023/12/20 12:35:27;;;;;;;9.70;6.10;;;;;;;;;;107116;1251;59524;-79
2023/12/20 12:37:54;;;;;;;7.80;5.40;;;;;;;;;;106986;1251;59834;-80
2023/12/20 12:40:21;;;;;;;9.60;5.00;;;;;;;;;;107108;1251;62724;-80
2023/12/20 12:42:47;;;;;;;10.90;5.60;;;;;;;;;;107222;1251;59119;-80
2023/12/20 12:45:14;;;;;;;10.20;6.50;;;;;;;;;;106871;1251;59907;-79
2023/12/20 12:47:40;;;;;;;10.00;6.10;;;;;;;;;;106865;1250;61035;-80
2023/12/20 12:50:08;;;;;;;13.40;7.10;;;;;;;;;;106832;1251;59732;-80
2023/12/20 12:52:35;;;;;;;11.00;5.90;;;;;;;;;;106955;1251;61187;-81
2023/12/20 12:55:01;;;;;;;13.00;7.60;;;;;;;;;;106961;1251;60772;-80
2023/12/20 12:57:28;;;;;;;10.20;6.10;;;;;;;;;;107028;1251;61486;-80
2023/12/20 12:59:55;;;;;;;18.70;10.70;;;;;;;;;;107296;1251;61638;-80
2023/12/20 13:02:22;;;;;;;15.30;10.40;;;;;;;;;;107164;1250;60781;-79
2023/12/20 13:04:48;;;;;;;9.50;5.20;;;;;;;;;;107228;1251;63098;-79
2023/12/20 13:07:15;;;;;;;12.30;7.00;;;;;;;;;;107248;1251;59834;-80
2023/12/20 13:09:42;;;;;;;12.90;9.20;;;;;;;;;;107202;1251;59851;-79
2023/12/20 13:12:08;;;;;;;11.60;8.60;;;;;;;;;;107165;1251;59769;-80
2023/12/20 13:14:36;;;;;;;39.60;14.50;;;;;;;;;;106767;1251;59840;-79
2023/12/20 13:17:03;;;;;;;10.60;7.30;;;;;;;;;;107232;1252;61697;-80
2023/12/20 13:19:33;;;;;;;13.00;7.20;;;;;;;;;;107232;1250;61186;-79
2023/12/20 13:21:59;;;;;;;12.70;6.70;;;;;;;;;;107140;1251;60177;-79
2023/12/20 13:24:25;;;;;;;12.70;6.80;;;;;;;;;;107391;1251;59746;-79
2023/12/20 13:26:52;;;;;;;18.40;9.50;;;;;;;;;;107147;1250;59821;-80
2023/12/20 13:29:19;;;;;;;26.40;13.00;;;;;;;;;;107226;1251;60843;-79
2023/12/20 13:31:45;;;;;;;12.60;6.40;;;;;;;;;;107489;1251;59724;-80
2023/12/20 13:34:12;;;;;;;14.30;8.20;;;;;;;;;;107029;1251;59729;-80
2023/12/20 13:36:39;;;;;;;35.60;16.90;;;;;;;;;;107013;1251;59877;-79
2023/12/20 13:39:06;;;;;;;39.60;18.70;;;;;;;;;;107173;1251;59168;-80
2023/12/20 13:41:33;;;;;;;52.80;17.70;;;;;;;;;;106890;1251;61874;-79
2023/12/20 13:44:01;;;;;;;21.10;10.70;;;;;;;;;;107237;1251;59704;-79
2023/12/20 13:46:28;;;;;;;12.50;8.90;;;;;;;;;;107216;1251;60786;-79
2023/12/20 13:48:54;;;;;;;19.60;9.70;;;;;;;;;;107230;1251;60872;-80
2023/12/20 13:51:21;;;;;;;45.40;17.70;;;;;;;;;;107001;1251;59318;-79
2023/12/20 13:53:48;;;;;;;40.90;17.40;;;;;;;;;;107127;1251;61650;-80
2023/12/20 13:56:15;;;;;;;29.90;19.50;;;;;;;;;;107042;1251;59813;-79
2023/12/20 13:58:41;;;;;;;41.00;18.30;;;;;;;;;;107254;1251;60537;-81
2023/12/20 14:01:10;;;;;;;51.80;22.60;;;;;;;;;;107145;1251;60770;-79
2023/12/20 14:03:36;;;;;;;45.40;20.10;;;;;;;;;;107384;1251;59461;-80
2023/12/20 14:06:03;;;;;;;34.70;16.80;;;;;;;;;;107070;1251;59689;-79
2023/12/20 14:08:30;;;;;;;23.80;13.30;;;;;;;;;;107655;1251;59858;-79
2023/12/20 14:10:56;;;;;;;59.60;27.30;;;;;;;;;;107934;1254;61677;-80
2023/12/20 14:13:23;;;;;;;29.70;16.00;;;;;;;;;;108032;1253;60196;-79
2023/12/20 14:15:49;;;;;;;53.40;27.80;;;;;;;;;;108226;1251;59758;-80